^^
Station Historical Data
Daily Summary for August 8, 2017 Units:  Both    English   Metric
« Previous Day
Next Day »
Daily Weekly Monthly Yearly Custom
  High: Low: Average:
Temperature: 77.2 °F /  25.1 °C 45.5 °F /  7.5 °C 59.5 °F /  15.3 °C
Dew Point: 19.0 °F /  -7.2 °C 12.0 °F /  -11.1 °C 16.3 °F /  -8.7 °C
Humidity: 31% 9% 20%
Wind Speed: 15.0mph /  24.1km/h - 1mph /  1.6km/h
Wind Gust: 17.0mph /  27.4km/h - -
Wind- - SW
Pressure: 30.35 in /  1027.7 hPa 30.23 in /  1023.6 hPa -
Precipitation: 0.00 in /  0 mm    
Historical Graphs
 
 
Tabular Data for August 8, 2017
Time Temperature Dew Point Pressure Wind Wind Speed Wind Gust Humidity Rainfall Rate (Hourly) solar Conditions
00:01 50.5 °F /  10.3 °C 16.9 °F /  -8.4 °C 30.31in /  1026.3hPa Calm     26% 0.00in /  0mm 0.0 W/m2
00:07 50.4 °F /  10.2 °C 17.6 °F /  -8 °C 30.31in /  1026.3hPa Calm     27% 0.00in /  0mm 0.0 W/m2
00:13 50.0 °F /  10 °C 16.5 °F /  -8.6 °C 30.31in /  1026.3hPa Calm     26% 0.00in /  0mm 0.0 W/m2
00:19 49.8 °F /  9.9 °C 16.3 °F /  -8.7 °C 30.31in /  1026.3hPa Calm     26% 0.00in /  0mm 0.0 W/m2
00:26 49.5 °F /  9.7 °C 16.0 °F /  -8.9 °C 30.31in /  1026.3hPa Calm     26% 0.00in /  0mm 0.0 W/m2
00:32 49.3 °F /  9.6 °C 16.7 °F /  -8.5 °C 30.31in /  1026.3hPa Calm     27% 0.00in /  0mm 0.0 W/m2
00:38 48.9 °F /  9.4 °C 16.3 °F /  -8.7 °C 30.31in /  1026.3hPa Calm   4.0mph /  6.4km/h 27% 0.00in /  0mm 0.0 W/m2
00:44 48.7 °F /  9.3 °C 16.2 °F /  -8.8 °C 30.31in /  1026.3hPa ENE 0.9mph /  1.4km/h 2.0mph /  3.2km/h 27% 0.00in /  0mm 0.0 W/m2
00:50 48.6 °F /  9.2 °C 16.2 °F /  -8.8 °C 30.31in /  1026.3hPa Calm   1.0mph /  1.6km/h 27% 0.00in /  0mm 0.0 W/m2
00:56 48.6 °F /  9.2 °C 16.2 °F /  -8.8 °C 30.31in /  1026.3hPa Calm   1.0mph /  1.6km/h 27% 0.00in /  0mm 0.0 W/m2
01:03 48.4 °F /  9.1 °C 16.0 °F /  -8.9 °C 30.31in /  1026.3hPa Calm   1.0mph /  1.6km/h 27% 0.00in /  0mm 0.0 W/m2
01:09 48.4 °F /  9.1 °C 16.7 °F /  -8.5 °C 30.31in /  1026.3hPa Calm     28% 0.00in /  0mm 0.0 W/m2
01:15 48.0 °F /  8.9 °C 16.5 °F /  -8.6 °C 30.31in /  1026.3hPa Calm   2.0mph /  3.2km/h 28% 0.00in /  0mm 0.0 W/m2
01:21 47.8 °F /  8.8 °C 16.3 °F /  -8.7 °C 30.31in /  1026.3hPa Calm     28% 0.00in /  0mm 0.0 W/m2
01:27 47.8 °F /  8.8 °C 16.3 °F /  -8.7 °C 30.31in /  1026.3hPa Calm     28% 0.00in /  0mm 0.0 W/m2
01:33 47.8 °F /  8.8 °C 16.3 °F /  -8.7 °C 30.31in /  1026.3hPa Calm   2.0mph /  3.2km/h 28% 0.00in /  0mm 0.0 W/m2
01:39 48.0 °F /  8.9 °C 16.5 °F /  -8.6 °C 30.31in /  1026.3hPa Calm     28% 0.00in /  0mm 0.0 W/m2
01:46 47.8 °F /  8.8 °C 16.3 °F /  -8.7 °C 30.31in /  1026.3hPa Calm   3.0mph /  4.8km/h 28% 0.00in /  0mm 0.0 W/m2
01:52 47.7 °F /  8.7 °C 16.2 °F /  -8.8 °C 30.30in /  1026hPa Calm   1.0mph /  1.6km/h 28% 0.00in /  0mm 0.0 W/m2
01:58 47.8 °F /  8.8 °C 17.1 °F /  -8.3 °C 30.31in /  1026.3hPa Calm     29% 0.00in /  0mm 0.0 W/m2
02:04 47.5 °F /  8.6 °C 16.9 °F /  -8.4 °C 30.30in /  1026hPa Calm   1.0mph /  1.6km/h 29% 0.00in /  0mm 0.0 W/m2
02:10 47.3 °F /  8.5 °C 16.7 °F /  -8.5 °C 30.30in /  1026hPa Calm   1.0mph /  1.6km/h 29% 0.00in /  0mm 0.0 W/m2
02:16 47.3 °F /  8.5 °C 16.7 °F /  -8.5 °C 30.30in /  1026hPa Calm   2.0mph /  3.2km/h 29% 0.00in /  0mm 0.0 W/m2
02:23 47.5 °F /  8.6 °C 16.9 °F /  -8.4 °C 30.30in /  1026hPa Calm     29% 0.00in /  0mm 0.0 W/m2
02:29 47.5 °F /  8.6 °C 16.9 °F /  -8.4 °C 30.30in /  1026hPa Calm   1.0mph /  1.6km/h 29% 0.00in /  0mm 0.0 W/m2
02:35 47.3 °F /  8.5 °C 15.8 °F /  -9 °C 30.30in /  1026hPa ENE 2.9mph /  4.7km/h 3.0mph /  4.8km/h 28% 0.00in /  0mm 0.0 W/m2
02:41 47.1 °F /  8.4 °C 16.5 °F /  -8.6 °C 30.30in /  1026hPa Calm   1.0mph /  1.6km/h 29% 0.00in /  0mm 0.0 W/m2
02:47 46.9 °F /  8.3 °C 16.3 °F /  -8.7 °C 30.30in /  1026hPa Calm     29% 0.00in /  0mm 0.0 W/m2
02:53 46.9 °F /  8.3 °C 16.3 °F /  -8.7 °C 30.29in /  1025.6hPa Calm   3.0mph /  4.8km/h 29% 0.00in /  0mm 0.0 W/m2
02:59 46.9 °F /  8.3 °C 16.3 °F /  -8.7 °C 30.30in /  1026hPa Calm     29% 0.00in /  0mm 0.0 W/m2
03:05 46.9 °F /  8.3 °C 16.3 °F /  -8.7 °C 30.29in /  1025.6hPa Calm   4.0mph /  6.4km/h 29% 0.00in /  0mm 0.0 W/m2
03:12 46.8 °F /  8.2 °C 16.2 °F /  -8.8 °C 30.30in /  1026hPa Calm   3.0mph /  4.8km/h 29% 0.00in /  0mm 0.0 W/m2
03:18 46.8 °F /  8.2 °C 16.2 °F /  -8.8 °C 30.29in /  1025.6hPa ESE 0.9mph /  1.4km/h 4.0mph /  6.4km/h 29% 0.00in /  0mm 0.0 W/m2
03:24 46.8 °F /  8.2 °C 16.2 °F /  -8.8 °C 30.29in /  1025.6hPa Calm   5.0mph /  8km/h 29% 0.00in /  0mm 0.0 W/m2
03:30 46.6 °F /  8.1 °C 16.0 °F /  -8.9 °C 30.29in /  1025.6hPa Calm   1.0mph /  1.6km/h 29% 0.00in /  0mm 0.0 W/m2
03:36 46.6 °F /  8.1 °C 16.0 °F /  -8.9 °C 30.29in /  1025.6hPa Calm   2.0mph /  3.2km/h 29% 0.00in /  0mm 0.0 W/m2
03:42 46.6 °F /  8.1 °C 16.9 °F /  -8.4 °C 30.30in /  1026hPa Calm   2.0mph /  3.2km/h 30% 0.00in /  0mm 0.0 W/m2
03:48 46.8 °F /  8.2 °C 16.2 °F /  -8.8 °C 30.30in /  1026hPa Calm   1.0mph /  1.6km/h 29% 0.00in /  0mm 0.0 W/m2
03:54 46.8 °F /  8.2 °C 16.2 °F /  -8.8 °C 30.30in /  1026hPa ENE 0.9mph /  1.4km/h 3.0mph /  4.8km/h 29% 0.00in /  0mm 0.0 W/m2
04:00 46.8 °F /  8.2 °C 16.2 °F /  -8.8 °C 30.30in /  1026hPa Calm   1.0mph /  1.6km/h 29% 0.00in /  0mm 0.0 W/m2
04:07 46.9 °F /  8.3 °C 16.3 °F /  -8.7 °C 30.30in /  1026hPa Calm     29% 0.00in /  0mm 0.0 W/m2
04:21 46.8 °F /  8.2 °C 16.2 °F /  -8.8 °C 30.30in /  1026hPa Calm     29% 0.00in /  0mm 0.0 W/m2
04:27 46.8 °F /  8.2 °C 16.2 °F /  -8.8 °C 30.30in /  1026hPa Calm   1.0mph /  1.6km/h 29% 0.00in /  0mm 0.0 W/m2
04:33 46.8 °F /  8.2 °C 16.2 °F /  -8.8 °C 30.30in /  1026hPa Calm     29% 0.00in /  0mm 0.0 W/m2
04:37 46.6 °F /  8.1 °C 16.0 °F /  -8.9 °C 30.30in /  1026hPa Calm     29% 0.00in /  0mm 0.0 W/m2
04:43 46.2 °F /  7.9 °C 16.5 °F /  -8.6 °C 30.30in /  1026hPa Calm     30% 0.00in /  0mm 0.0 W/m2
04:46 46.2 °F /  7.9 °C 16.5 °F /  -8.6 °C 30.30in /  1026hPa Calm     30% 0.00in /  0mm 0.0 W/m2
04:52 45.9 °F /  7.7 °C 16.2 °F /  -8.8 °C 30.30in /  1026hPa Calm   1.0mph /  1.6km/h 30% 0.00in /  0mm 0.0 W/m2
04:58 45.9 °F /  7.7 °C 16.2 °F /  -8.8 °C 30.30in /  1026hPa Calm   2.0mph /  3.2km/h 30% 0.00in /  0mm 0.0 W/m2
05:04 45.9 °F /  7.7 °C 16.2 °F /  -8.8 °C 30.30in /  1026hPa Calm   3.0mph /  4.8km/h 30% 0.00in /  0mm 0.0 W/m2
05:10 45.7 °F /  7.6 °C 16.0 °F /  -8.9 °C 30.30in /  1026hPa Calm   1.0mph /  1.6km/h 30% 0.00in /  0mm 0.0 W/m2
05:16 45.7 °F /  7.6 °C 16.7 °F /  -8.5 °C 30.30in /  1026hPa Calm     31% 0.00in /  0mm 0.0 W/m2
05:22 45.5 °F /  7.5 °C 15.8 °F /  -9 °C 30.31in /  1026.3hPa Calm     30% 0.00in /  0mm 0.0 W/m2
05:29 45.5 °F /  7.5 °C 15.8 °F /  -9 °C 30.30in /  1026hPa Calm     30% 0.00in /  0mm 0.0 W/m2
05:35 45.5 °F /  7.5 °C 15.8 °F /  -9 °C 30.31in /  1026.3hPa SE 2.9mph /  4.7km/h 5.0mph /  8km/h 30% 0.00in /  0mm 0.0 W/m2
05:41 45.9 °F /  7.7 °C 15.4 °F /  -9.2 °C 30.31in /  1026.3hPa SE 2.0mph /  3.2km/h 5.0mph /  8km/h 29% 0.00in /  0mm 0.0 W/m2
05:47 46.0 °F /  7.8 °C 16.3 °F /  -8.7 °C 30.31in /  1026.3hPa Calm     30% 0.00in /  0mm 0.0 W/m2
05:53 46.0 °F /  7.8 °C 16.3 °F /  -8.7 °C 30.31in /  1026.3hPa Calm   1.0mph /  1.6km/h 30% 0.00in /  0mm 0.0 W/m2
05:59 45.9 °F /  7.7 °C 15.4 °F /  -9.2 °C 30.32in /  1026.6hPa Calm   2.0mph /  3.2km/h 29% 0.00in /  0mm 0.0 W/m2
06:01 45.9 °F /  7.7 °C 15.4 °F /  -9.2 °C 30.31in /  1026.3hPa Calm   1.0mph /  1.6km/h 29% 0.00in /  0mm 0.0 W/m2
06:08 45.7 °F /  7.6 °C 15.3 °F /  -9.3 °C 30.32in /  1026.6hPa Calm   2.0mph /  3.2km/h 29% 0.00in /  0mm 0.0 W/m2
06:14 45.7 °F /  7.6 °C 15.3 °F /  -9.3 °C 30.32in /  1026.6hPa Calm     29% 0.00in /  0mm 0.0 W/m2
06:20 45.7 °F /  7.6 °C 16.0 °F /  -8.9 °C 30.32in /  1026.6hPa Calm   1.0mph /  1.6km/h 30% 0.00in /  0mm 0.0 W/m2
06:26 45.7 °F /  7.6 °C 16.0 °F /  -8.9 °C 30.32in /  1026.6hPa Calm     30% 0.00in /  0mm 5.0 W/m2
06:32 45.7 °F /  7.6 °C 16.0 °F /  -8.9 °C 30.32in /  1026.6hPa Calm   3.0mph /  4.8km/h 30% 0.00in /  0mm 7.0 W/m2
06:38 45.7 °F /  7.6 °C 16.0 °F /  -8.9 °C 30.32in /  1026.6hPa Calm     30% 0.00in /  0mm 11.0 W/m2
06:44 45.7 °F /  7.6 °C 16.0 °F /  -8.9 °C 30.32in /  1026.6hPa Calm     30% 0.00in /  0mm 12.0 W/m2
06:50 45.7 °F /  7.6 °C 16.0 °F /  -8.9 °C 30.33in /  1027hPa Calm     30% 0.00in /  0mm 14.0 W/m2
06:56 45.9 °F /  7.7 °C 16.2 °F /  -8.8 °C 30.33in /  1027hPa Calm     30% 0.00in /  0mm 16.0 W/m2
07:02 46.0 °F /  7.8 °C 16.3 °F /  -8.7 °C 30.33in /  1027hPa Calm   1.0mph /  1.6km/h 30% 0.00in /  0mm 18.0 W/m2
07:08 46.2 °F /  7.9 °C 15.6 °F /  -9.1 °C 30.33in /  1027hPa Calm   1.0mph /  1.6km/h 29% 0.00in /  0mm 19.0 W/m2
07:15 46.9 °F /  8.3 °C 16.3 °F /  -8.7 °C 30.33in /  1027hPa Calm     29% 0.00in /  0mm 21.0 W/m2
07:21 47.5 °F /  8.6 °C 16.9 °F /  -8.4 °C 30.33in /  1027hPa Calm   1.0mph /  1.6km/h 29% 0.00in /  0mm 21.0 W/m2
07:27 48.0 °F /  8.9 °C 16.5 °F /  -8.6 °C 30.33in /  1027hPa NE 0.9mph /  1.4km/h 3.0mph /  4.8km/h 28% 0.00in /  0mm 23.0 W/m2
07:33 48.6 °F /  9.2 °C 16.9 °F /  -8.4 °C 30.33in /  1027hPa Calm   1.0mph /  1.6km/h 28% 0.00in /  0mm 25.0 W/m2
07:39 49.3 °F /  9.6 °C 17.6 °F /  -8 °C 30.34in /  1027.3hPa Calm   1.0mph /  1.6km/h 28% 0.00in /  0mm 26.0 W/m2
07:45 50.0 °F /  10 °C 17.2 °F /  -8.2 °C 30.34in /  1027.3hPa ESE 2.0mph /  3.2km/h 3.0mph /  4.8km/h 27% 0.00in /  0mm 26.0 W/m2
07:51 50.7 °F /  10.4 °C 18.0 °F /  -7.8 °C 30.34in /  1027.3hPa Calm   2.0mph /  3.2km/h 27% 0.00in /  0mm 28.0 W/m2
07:58 51.4 °F /  10.8 °C 18.5 °F /  -7.5 °C 30.34in /  1027.3hPa Calm   1.0mph /  1.6km/h 27% 0.00in /  0mm 30.0 W/m2
08:04 52.3 °F /  11.3 °C 17.6 °F /  -8 °C 30.34in /  1027.3hPa Calm   3.0mph /  4.8km/h 25% 0.00in /  0mm 30.0 W/m2
08:10 53.2 °F /  11.8 °C 18.3 °F /  -7.6 °C 30.34in /  1027.3hPa East 0.9mph /  1.4km/h 2.0mph /  3.2km/h 25% 0.00in /  0mm 32.0 W/m2
08:16 54.3 °F /  12.4 °C 18.3 °F /  -7.6 °C 30.34in /  1027.3hPa Calm     24% 0.00in /  0mm 33.0 W/m2
08:22 55.4 °F /  13 °C 17.2 °F /  -8.2 °C 30.34in /  1027.3hPa Calm     22% 0.00in /  0mm 35.0 W/m2
08:28 57.2 °F /  14 °C 14.0 °F /  -10 °C 30.34in /  1027.3hPa Calm     18% 0.00in /  0mm 410.0 W/m2
08:34 59.5 °F /  15.3 °C 13.3 °F /  -10.4 °C 30.34in /  1027.3hPa Calm     16% 0.00in /  0mm 438.0 W/m2
08:41 61.9 °F /  16.6 °C 12.2 °F /  -11 °C 30.34in /  1027.3hPa Calm     14% 0.00in /  0mm 457.0 W/m2
08:47 64.2 °F /  17.9 °C 12.4 °F /  -10.9 °C 30.34in /  1027.3hPa Calm     13% 0.00in /  0mm 480.0 W/m2
08:53 66.0 °F /  18.9 °C 12.0 °F /  -11.1 °C 30.35in /  1027.7hPa Calm     12% 0.00in /  0mm 497.0 W/m2
08:59 67.6 °F /  19.8 °C 13.3 °F /  -10.4 °C 30.35in /  1027.7hPa Calm   3.0mph /  4.8km/h 12% 0.00in /  0mm 513.0 W/m2
09:05 68.7 °F /  20.4 °C 14.0 °F /  -10 °C 30.35in /  1027.7hPa Calm   2.0mph /  3.2km/h 12% 0.00in /  0mm 534.0 W/m2
09:11 69.3 °F /  20.7 °C 12.6 °F /  -10.8 °C 30.35in /  1027.7hPa Calm     11% 0.00in /  0mm 550.0 W/m2
09:17 70.0 °F /  21.1 °C 13.1 °F /  -10.5 °C 30.35in /  1027.7hPa NNW 2.9mph /  4.7km/h 3.0mph /  4.8km/h 11% 0.00in /  0mm 568.0 W/m2
09:23 70.9 °F /  21.6 °C 13.8 °F /  -10.1 °C 30.35in /  1027.7hPa Calm     11% 0.00in /  0mm 584.0 W/m2
09:30 71.6 °F /  22 °C 12.2 °F /  -11 °C 30.35in /  1027.7hPa Calm   1.0mph /  1.6km/h 10% 0.00in /  0mm 599.0 W/m2
09:36 72.1 °F /  22.3 °C 12.6 °F /  -10.8 °C 30.35in /  1027.7hPa NNE 0.9mph /  1.4km/h 5.0mph /  8km/h 10% 0.00in /  0mm 615.0 W/m2
09:42 72.3 °F /  22.4 °C 14.9 °F /  -9.5 °C 30.35in /  1027.7hPa Calm   1.0mph /  1.6km/h 11% 0.00in /  0mm 631.0 W/m2
09:48 72.3 °F /  22.4 °C 12.7 °F /  -10.7 °C 30.35in /  1027.7hPa Calm   2.0mph /  3.2km/h 10% 0.00in /  0mm 642.0 W/m2
09:54 72.3 °F /  22.4 °C 14.9 °F /  -9.5 °C 30.35in /  1027.7hPa Calm   4.0mph /  6.4km/h 11% 0.00in /  0mm 657.0 W/m2
10:00 72.5 °F /  22.5 °C 15.1 °F /  -9.4 °C 30.35in /  1027.7hPa NW 4.9mph /  7.9km/h 5.0mph /  8km/h 11% 0.00in /  0mm 670.0 W/m2
10:06 73.0 °F /  22.8 °C 15.4 °F /  -9.2 °C 30.34in /  1027.3hPa NNW 4.9mph /  7.9km/h 7.0mph /  11.3km/h 11% 0.00in /  0mm 677.0 W/m2
10:12 73.2 °F /  22.9 °C 13.3 °F /  -10.4 °C 30.34in /  1027.3hPa NNE 2.9mph /  4.7km/h 4.0mph /  6.4km/h 10% 0.00in /  0mm 689.0 W/m2
10:19 73.8 °F /  23.2 °C 16.0 °F /  -8.9 °C 30.34in /  1027.3hPa NNE 8.1mph /  13km/h 8.1mph /  13km/h 11% 0.00in /  0mm 705.0 W/m2
10:25 73.9 °F /  23.3 °C 16.2 °F /  -8.8 °C 30.33in /  1027hPa NNW 2.0mph /  3.2km/h 5.0mph /  8km/h 11% 0.00in /  0mm 708.0 W/m2
10:31 74.3 °F /  23.5 °C 16.3 °F /  -8.7 °C 30.33in /  1027hPa NNE 4.0mph /  6.4km/h 8.0mph /  12.9km/h 11% 0.00in /  0mm 724.0 W/m2
10:37 74.5 °F /  23.6 °C 16.5 °F /  -8.6 °C 30.33in /  1027hPa NW 4.9mph /  7.9km/h 8.0mph /  12.9km/h 11% 0.00in /  0mm 735.0 W/m2
10:43 74.7 °F /  23.7 °C 16.7 °F /  -8.5 °C 30.33in /  1027hPa NW 0.9mph /  1.4km/h 5.0mph /  8km/h 11% 0.00in /  0mm 744.0 W/m2
10:49 74.5 °F /  23.6 °C 16.5 °F /  -8.6 °C 30.32in /  1026.6hPa NNW 8.9mph /  14.3km/h 9.0mph /  14.5km/h 11% 0.00in /  0mm 752.0 W/m2
10:56 74.5 °F /  23.6 °C 16.5 °F /  -8.6 °C 30.32in /  1026.6hPa NNW 4.0mph /  6.4km/h 12.0mph /  19.3km/h 11% 0.00in /  0mm 752.0 W/m2
11:01 74.5 °F /  23.6 °C 16.5 °F /  -8.6 °C 30.32in /  1026.6hPa NNW 2.0mph /  3.2km/h 6.0mph /  9.7km/h 11% 0.00in /  0mm 759.0 W/m2
11:07 74.5 °F /  23.6 °C 18.5 °F /  -7.5 °C 30.32in /  1026.6hPa WNW 2.9mph /  4.7km/h 4.0mph /  6.4km/h 12% 0.00in /  0mm 765.0 W/m2
11:14 74.7 °F /  23.7 °C 16.7 °F /  -8.5 °C 30.32in /  1026.6hPa NNW 0.9mph /  1.4km/h 11.0mph /  17.7km/h 11% 0.00in /  0mm 770.0 W/m2
11:20 74.8 °F /  23.8 °C 18.9 °F /  -7.3 °C 30.31in /  1026.3hPa North 4.0mph /  6.4km/h 8.0mph /  12.9km/h 12% 0.00in /  0mm 766.0 W/m2
11:26 75.0 °F /  23.9 °C 19.0 °F /  -7.2 °C 30.31in /  1026.3hPa SW 2.0mph /  3.2km/h 5.0mph /  8km/h 12% 0.00in /  0mm 772.0 W/m2
11:32 75.0 °F /  23.9 °C 16.9 °F /  -8.4 °C 30.31in /  1026.3hPa NW 2.9mph /  4.7km/h 5.0mph /  8km/h 11% 0.00in /  0mm 779.0 W/m2
11:38 75.4 °F /  24.1 °C 17.2 °F /  -8.2 °C 30.30in /  1026hPa NW 4.0mph /  6.4km/h 13.0mph /  20.9km/h 11% 0.00in /  0mm 782.0 W/m2
11:44 75.6 °F /  24.2 °C 17.4 °F /  -8.1 °C 30.30in /  1026hPa NW 2.0mph /  3.2km/h 5.0mph /  8km/h 11% 0.00in /  0mm 779.0 W/m2
11:50 75.7 °F /  24.3 °C 17.4 °F /  -8.1 °C 30.30in /  1026hPa North 2.0mph /  3.2km/h 6.0mph /  9.7km/h 11% 0.00in /  0mm 773.0 W/m2
11:56 75.7 °F /  24.3 °C 17.4 °F /  -8.1 °C 30.29in /  1025.6hPa WNW 0.9mph /  1.4km/h 3.0mph /  4.8km/h 11% 0.00in /  0mm 773.0 W/m2
12:02 76.3 °F /  24.6 °C 18.0 °F /  -7.8 °C 30.29in /  1025.6hPa WNW 2.9mph /  4.7km/h 5.0mph /  8km/h 11% 0.00in /  0mm 779.0 W/m2
12:09 76.3 °F /  24.6 °C 18.0 °F /  -7.8 °C 30.29in /  1025.6hPa WNW 0.9mph /  1.4km/h 9.0mph /  14.5km/h 11% 0.00in /  0mm 775.0 W/m2
12:15 76.6 °F /  24.8 °C 16.0 °F /  -8.9 °C 30.28in /  1025.3hPa WNW 2.0mph /  3.2km/h 9.0mph /  14.5km/h 10% 0.00in /  0mm 773.0 W/m2
12:21 76.8 °F /  24.9 °C 16.2 °F /  -8.8 °C 30.28in /  1025.3hPa West 0.9mph /  1.4km/h 6.0mph /  9.7km/h 10% 0.00in /  0mm 770.0 W/m2
12:27 76.8 °F /  24.9 °C 16.2 °F /  -8.8 °C 30.28in /  1025.3hPa Calm   5.0mph /  8km/h 10% 0.00in /  0mm 768.0 W/m2
12:33 76.6 °F /  24.8 °C 16.0 °F /  -8.9 °C 30.27in /  1024.9hPa Calm   7.0mph /  11.3km/h 10% 0.00in /  0mm 768.0 W/m2
12:39 76.8 °F /  24.9 °C 18.3 °F /  -7.6 °C 30.27in /  1024.9hPa North 4.9mph /  7.9km/h 5.0mph /  8km/h 11% 0.00in /  0mm 766.0 W/m2
12:46 76.8 °F /  24.9 °C 16.2 °F /  -8.8 °C 30.27in /  1024.9hPa North 2.0mph /  3.2km/h 5.0mph /  8km/h 10% 0.00in /  0mm 758.0 W/m2
12:52 77.2 °F /  25.1 °C 16.3 °F /  -8.7 °C 30.27in /  1024.9hPa WNW 6.9mph /  11.1km/h 11.0mph /  17.7km/h 10% 0.00in /  0mm 752.0 W/m2
12:58 77.2 °F /  25.1 °C 18.7 °F /  -7.4 °C 30.27in /  1024.9hPa SW 4.9mph /  7.9km/h 8.0mph /  12.9km/h 11% 0.00in /  0mm 744.0 W/m2
13:04 76.6 °F /  24.8 °C 18.1 °F /  -7.7 °C 30.26in /  1024.6hPa Calm   8.0mph /  12.9km/h 11% 0.00in /  0mm 738.0 W/m2
13:10 76.6 °F /  24.8 °C 18.1 °F /  -7.7 °C 30.26in /  1024.6hPa NNW 0.9mph /  1.4km/h 5.0mph /  8km/h 11% 0.00in /  0mm 724.0 W/m2
13:16 76.8 °F /  24.9 °C 18.3 °F /  -7.6 °C 30.26in /  1024.6hPa NNW 2.0mph /  3.2km/h 7.0mph /  11.3km/h 11% 0.00in /  0mm 715.0 W/m2
13:22 76.8 °F /  24.9 °C 18.3 °F /  -7.6 °C 30.25in /  1024.3hPa Calm   9.0mph /  14.5km/h 11% 0.00in /  0mm 708.0 W/m2
13:28 76.8 °F /  24.9 °C 18.3 °F /  -7.6 °C 30.25in /  1024.3hPa Calm   3.0mph /  4.8km/h 11% 0.00in /  0mm 693.0 W/m2
13:34 77.0 °F /  25 °C 18.5 °F /  -7.5 °C 30.25in /  1024.3hPa NNW 8.1mph /  13km/h 9.0mph /  14.5km/h 11% 0.00in /  0mm 680.0 W/m2
13:41 76.5 °F /  24.7 °C 18.0 °F /  -7.8 °C 30.25in /  1024.3hPa NNW 4.0mph /  6.4km/h 9.0mph /  14.5km/h 11% 0.00in /  0mm 668.0 W/m2
13:47 76.6 °F /  24.8 °C 18.1 °F /  -7.7 °C 30.24in /  1023.9hPa WNW 2.0mph /  3.2km/h 5.0mph /  8km/h 11% 0.00in /  0mm 654.0 W/m2
13:53 77.2 °F /  25.1 °C 18.7 °F /  -7.4 °C 30.24in /  1023.9hPa NNW 6.9mph /  11.1km/h 8.0mph /  12.9km/h 11% 0.00in /  0mm 643.0 W/m2
13:59 77.2 °F /  25.1 °C 18.7 °F /  -7.4 °C 30.24in /  1023.9hPa Calm   9.0mph /  14.5km/h 11% 0.00in /  0mm 640.0 W/m2
14:05 77.0 °F /  25 °C 18.5 °F /  -7.5 °C 30.24in /  1023.9hPa WSW 2.0mph /  3.2km/h 10.0mph /  16.1km/h 11% 0.00in /  0mm 617.0 W/m2
14:11 77.0 °F /  25 °C 16.3 °F /  -8.7 °C 30.24in /  1023.9hPa West 2.0mph /  3.2km/h 7.0mph /  11.3km/h 10% 0.00in /  0mm 603.0 W/m2
14:17 76.6 °F /  24.8 °C 16.0 °F /  -8.9 °C 30.24in /  1023.9hPa WSW 2.9mph /  4.7km/h 11.0mph /  17.7km/h 10% 0.00in /  0mm 585.0 W/m2
14:24 75.9 °F /  24.4 °C 15.4 °F /  -9.2 °C 30.23in /  1023.6hPa West 2.0mph /  3.2km/h 5.0mph /  8km/h 10% 0.00in /  0mm 575.0 W/m2
14:30 76.5 °F /  24.7 °C 15.8 °F /  -9 °C 30.23in /  1023.6hPa WSW 4.9mph /  7.9km/h 11.0mph /  17.7km/h 10% 0.00in /  0mm 559.0 W/m2
14:36 76.6 °F /  24.8 °C 16.0 °F /  -8.9 °C 30.23in /  1023.6hPa WSW 15.0mph /  24.1km/h 17.0mph /  27.4km/h 10% 0.00in /  0mm 541.0 W/m2
14:42 76.6 °F /  24.8 °C 16.0 °F /  -8.9 °C 30.23in /  1023.6hPa WSW 2.0mph /  3.2km/h 7.0mph /  11.3km/h 10% 0.00in /  0mm 531.0 W/m2
14:48 76.5 °F /  24.7 °C 15.8 °F /  -9 °C 30.23in /  1023.6hPa Calm   3.0mph /  4.8km/h 10% 0.00in /  0mm 510.0 W/m2
14:54 76.6 °F /  24.8 °C 16.0 °F /  -8.9 °C 30.23in /  1023.6hPa WNW 0.9mph /  1.4km/h 5.0mph /  8km/h 10% 0.00in /  0mm 492.0 W/m2
15:00 76.6 °F /  24.8 °C 13.6 °F /  -10.2 °C 30.23in /  1023.6hPa SW 6.9mph /  11.1km/h 11.0mph /  17.7km/h 9% 0.00in /  0mm 478.0 W/m2
15:06 75.9 °F /  24.4 °C 15.4 °F /  -9.2 °C 30.23in /  1023.6hPa NNW 4.9mph /  7.9km/h 13.0mph /  20.9km/h 10% 0.00in /  0mm 459.0 W/m2
15:13 76.3 °F /  24.6 °C 15.6 °F /  -9.1 °C 30.24in /  1023.9hPa SW 2.0mph /  3.2km/h 4.0mph /  6.4km/h 10% 0.00in /  0mm 438.0 W/m2
15:19 76.5 °F /  24.7 °C 15.8 °F /  -9 °C 30.24in /  1023.9hPa WSW 0.9mph /  1.4km/h 8.0mph /  12.9km/h 10% 0.00in /  0mm 418.0 W/m2
15:25 76.5 °F /  24.7 °C 13.5 °F /  -10.3 °C 30.24in /  1023.9hPa Calm   7.0mph /  11.3km/h 9% 0.00in /  0mm 399.0 W/m2
15:31 76.3 °F /  24.6 °C 13.3 °F /  -10.4 °C 30.24in /  1023.9hPa West 2.9mph /  4.7km/h 11.0mph /  17.7km/h 9% 0.00in /  0mm 376.0 W/m2
15:37 75.6 °F /  24.2 °C 15.1 °F /  -9.4 °C 30.24in /  1023.9hPa West 2.9mph /  4.7km/h 4.0mph /  6.4km/h 10% 0.00in /  0mm 359.0 W/m2
15:43 75.2 °F /  24 °C 14.9 °F /  -9.5 °C 30.24in /  1023.9hPa SSW 4.9mph /  7.9km/h 8.0mph /  12.9km/h 10% 0.00in /  0mm 338.0 W/m2
15:49 74.8 °F /  23.8 °C 14.5 °F /  -9.7 °C 30.24in /  1023.9hPa WSW 4.0mph /  6.4km/h 8.0mph /  12.9km/h 10% 0.00in /  0mm 315.0 W/m2
15:55 74.3 °F /  23.5 °C 14.2 °F /  -9.9 °C 30.25in /  1024.3hPa WNW 4.0mph /  6.4km/h 8.0mph /  12.9km/h 10% 0.00in /  0mm 53.0 W/m2
16:01 73.9 °F /  23.3 °C 14.0 °F /  -10 °C 30.25in /  1024.3hPa WSW 4.0mph /  6.4km/h 10.0mph /  16.1km/h 10% 0.00in /  0mm 40.0 W/m2
16:08 73.9 °F /  23.3 °C 14.0 °F /  -10 °C 30.24in /  1023.9hPa West 2.9mph /  4.7km/h 6.0mph /  9.7km/h 10% 0.00in /  0mm 40.0 W/m2
16:14 73.8 °F /  23.2 °C 13.8 °F /  -10.1 °C 30.25in /  1024.3hPa West 2.9mph /  4.7km/h 7.0mph /  11.3km/h 10% 0.00in /  0mm 37.0 W/m2
16:20 73.2 °F /  22.9 °C 13.3 °F /  -10.4 °C 30.25in /  1024.3hPa West 2.0mph /  3.2km/h 6.0mph /  9.7km/h 10% 0.00in /  0mm 42.0 W/m2
16:26 73.0 °F /  22.8 °C 13.3 °F /  -10.4 °C 30.25in /  1024.3hPa WSW 2.0mph /  3.2km/h 3.0mph /  4.8km/h 10% 0.00in /  0mm 44.0 W/m2
16:32 72.9 °F /  22.7 °C 15.3 °F /  -9.3 °C 30.25in /  1024.3hPa WSW 2.9mph /  4.7km/h 3.0mph /  4.8km/h 11% 0.00in /  0mm 28.0 W/m2
16:38 72.5 °F /  22.5 °C 15.1 °F /  -9.4 °C 30.25in /  1024.3hPa West 0.9mph /  1.4km/h 7.0mph /  11.3km/h 11% 0.00in /  0mm 35.0 W/m2
16:51 72.1 °F /  22.3 °C 14.7 °F /  -9.6 °C 30.25in /  1024.3hPa WSW 2.0mph /  3.2km/h 5.0mph /  8km/h 11% 0.00in /  0mm 54.0 W/m2
16:57 72.0 °F /  22.2 °C 14.5 °F /  -9.7 °C 30.25in /  1024.3hPa West 2.0mph /  3.2km/h 7.0mph /  11.3km/h 11% 0.00in /  0mm 32.0 W/m2
17:09 71.4 °F /  21.9 °C 16.2 °F /  -8.8 °C 30.25in /  1024.3hPa Calm   5.0mph /  8km/h 12% 0.00in /  0mm 16.0 W/m2
17:13 71.1 °F /  21.7 °C 15.8 °F /  -9 °C 30.25in /  1024.3hPa Calm   1.0mph /  1.6km/h 12% 0.00in /  0mm 14.0 W/m2
17:19 70.7 °F /  21.5 °C 15.6 °F /  -9.1 °C 30.25in /  1024.3hPa SW 2.0mph /  3.2km/h 2.0mph /  3.2km/h 12% 0.00in /  0mm 11.0 W/m2
17:25 70.2 °F /  21.2 °C 17.1 °F /  -8.3 °C 30.25in /  1024.3hPa WSW 0.9mph /  1.4km/h 3.0mph /  4.8km/h 13% 0.00in /  0mm 7.0 W/m2
17:31 69.6 °F /  20.9 °C 16.5 °F /  -8.6 °C 30.25in /  1024.3hPa Calm   1.0mph /  1.6km/h 13% 0.00in /  0mm 5.0 W/m2
17:38 69.1 °F /  20.6 °C 16.2 °F /  -8.8 °C 30.26in /  1024.6hPa Calm     13% 0.00in /  0mm 0.0 W/m2
17:44 68.4 °F /  20.2 °C 15.6 °F /  -9.1 °C 30.26in /  1024.6hPa Calm     13% 0.00in /  0mm 0.0 W/m2
17:50 67.6 °F /  19.8 °C 16.7 °F /  -8.5 °C 30.26in /  1024.6hPa Calm     14% 0.00in /  0mm 0.0 W/m2
17:56 66.7 °F /  19.3 °C 17.6 °F /  -8 °C 30.27in /  1024.9hPa Calm     15% 0.00in /  0mm 0.0 W/m2
18:02 65.8 °F /  18.8 °C 16.9 °F /  -8.4 °C 30.27in /  1024.9hPa Calm     15% 0.00in /  0mm 0.0 W/m2
18:08 64.9 °F /  18.3 °C 17.6 °F /  -8 °C 30.27in /  1024.9hPa Calm     16% 0.00in /  0mm 0.0 W/m2
18:14 64.0 °F /  17.8 °C 16.9 °F /  -8.4 °C 30.28in /  1025.3hPa Calm     16% 0.00in /  0mm 0.0 W/m2
18:21 63.3 °F /  17.4 °C 16.3 °F /  -8.7 °C 30.28in /  1025.3hPa Calm     16% 0.00in /  0mm 0.0 W/m2
18:27 62.6 °F /  17 °C 17.2 °F /  -8.2 °C 30.28in /  1025.3hPa Calm     17% 0.00in /  0mm 0.0 W/m2
18:33 61.9 °F /  16.6 °C 18.0 °F /  -7.8 °C 30.28in /  1025.3hPa Calm     18% 0.00in /  0mm 0.0 W/m2
18:39 61.2 °F /  16.2 °C 17.2 °F /  -8.2 °C 30.28in /  1025.3hPa Calm   1.0mph /  1.6km/h 18% 0.00in /  0mm 0.0 W/m2
18:45 60.3 °F /  15.7 °C 17.8 °F /  -7.9 °C 30.29in /  1025.6hPa Calm     19% 0.00in /  0mm 0.0 W/m2
18:51 59.5 °F /  15.3 °C 17.2 °F /  -8.2 °C 30.29in /  1025.6hPa Calm     19% 0.00in /  0mm 0.0 W/m2
18:57 58.8 °F /  14.9 °C 16.7 °F /  -8.5 °C 30.29in /  1025.6hPa Calm     19% 0.00in /  0mm 0.0 W/m2
19:03 58.3 °F /  14.6 °C 17.4 °F /  -8.1 °C 30.30in /  1026hPa Calm     20% 0.00in /  0mm 0.0 W/m2
19:10 57.7 °F /  14.3 °C 16.9 °F /  -8.4 °C 30.30in /  1026hPa Calm     20% 0.00in /  0mm 0.0 W/m2
19:16 57.4 °F /  14.1 °C 17.8 °F /  -7.9 °C 30.31in /  1026.3hPa Calm     21% 0.00in /  0mm 0.0 W/m2
19:22 56.8 °F /  13.8 °C 17.2 °F /  -8.2 °C 30.31in /  1026.3hPa Calm     21% 0.00in /  0mm 0.0 W/m2
19:28 56.5 °F /  13.6 °C 17.1 °F /  -8.3 °C 30.31in /  1026.3hPa Calm     21% 0.00in /  0mm 0.0 W/m2
19:34 55.9 °F /  13.3 °C 16.5 °F /  -8.6 °C 30.31in /  1026.3hPa Calm   1.0mph /  1.6km/h 21% 0.00in /  0mm 0.0 W/m2
19:40 55.4 °F /  13 °C 16.2 °F /  -8.8 °C 30.31in /  1026.3hPa Calm     21% 0.00in /  0mm 0.0 W/m2
19:46 55.0 °F /  12.8 °C 15.8 °F /  -9 °C 30.32in /  1026.6hPa Calm     21% 0.00in /  0mm 0.0 W/m2
19:52 54.7 °F /  12.6 °C 16.5 °F /  -8.6 °C 30.32in /  1026.6hPa Calm     22% 0.00in /  0mm 0.0 W/m2
19:58 54.3 °F /  12.4 °C 16.3 °F /  -8.7 °C 30.32in /  1026.6hPa Calm     22% 0.00in /  0mm 0.0 W/m2
20:04 54.0 °F /  12.2 °C 16.0 °F /  -8.9 °C 30.32in /  1026.6hPa Calm     22% 0.00in /  0mm 0.0 W/m2
20:10 53.4 °F /  11.9 °C 16.5 °F /  -8.6 °C 30.32in /  1026.6hPa Calm     23% 0.00in /  0mm 0.0 W/m2
20:16 53.2 °F /  11.8 °C 16.3 °F /  -8.7 °C 30.33in /  1027hPa Calm     23% 0.00in /  0mm 0.0 W/m2
20:22 52.9 °F /  11.6 °C 16.2 °F /  -8.8 °C 30.32in /  1026.6hPa Calm     23% 0.00in /  0mm 0.0 W/m2
20:29 52.5 °F /  11.4 °C 16.7 °F /  -8.5 °C 30.33in /  1027hPa Calm     24% 0.00in /  0mm 0.0 W/m2
20:35 52.3 °F /  11.3 °C 17.6 °F /  -8 °C 30.32in /  1026.6hPa Calm     25% 0.00in /  0mm 0.0 W/m2
20:41 52.0 °F /  11.1 °C 16.3 °F /  -8.7 °C 30.33in /  1027hPa Calm     24% 0.00in /  0mm 0.0 W/m2
20:47 52.0 °F /  11.1 °C 17.2 °F /  -8.2 °C 30.33in /  1027hPa Calm   3.0mph /  4.8km/h 25% 0.00in /  0mm 0.0 W/m2
20:53 52.0 °F /  11.1 °C 17.2 °F /  -8.2 °C 30.33in /  1027hPa South 0.9mph /  1.4km/h 2.0mph /  3.2km/h 25% 0.00in /  0mm 0.0 W/m2
20:59 52.2 °F /  11.2 °C 17.4 °F /  -8.1 °C 30.33in /  1027hPa South 0.9mph /  1.4km/h 2.0mph /  3.2km/h 25% 0.00in /  0mm 0.0 W/m2
21:05 52.3 °F /  11.3 °C 16.5 °F /  -8.6 °C 30.33in /  1027hPa Calm     24% 0.00in /  0mm 0.0 W/m2
21:11 52.3 °F /  11.3 °C 17.6 °F /  -8 °C 30.33in /  1027hPa Calm   1.0mph /  1.6km/h 25% 0.00in /  0mm 0.0 W/m2
21:17 52.3 °F /  11.3 °C 17.6 °F /  -8 °C 30.33in /  1027hPa Calm   1.0mph /  1.6km/h 25% 0.00in /  0mm 0.0 W/m2
21:23 52.3 °F /  11.3 °C 16.5 °F /  -8.6 °C 30.33in /  1027hPa Calm   1.0mph /  1.6km/h 24% 0.00in /  0mm 0.0 W/m2
21:29 52.3 °F /  11.3 °C 16.5 °F /  -8.6 °C 30.33in /  1027hPa Calm     24% 0.00in /  0mm 0.0 W/m2
21:35 52.2 °F /  11.2 °C 17.4 °F /  -8.1 °C 30.33in /  1027hPa Calm     25% 0.00in /  0mm 0.0 W/m2
21:41 52.0 °F /  11.1 °C 17.2 °F /  -8.2 °C 30.33in /  1027hPa Calm     25% 0.00in /  0mm 0.0 W/m2
21:47 51.6 °F /  10.9 °C 16.9 °F /  -8.4 °C 30.33in /  1027hPa Calm   1.0mph /  1.6km/h 25% 0.00in /  0mm 0.0 W/m2
21:53 51.4 °F /  10.8 °C 16.7 °F /  -8.5 °C 30.33in /  1027hPa SSE 0.9mph /  1.4km/h 1.0mph /  1.6km/h 25% 0.00in /  0mm 0.0 W/m2
21:59 51.3 °F /  10.7 °C 16.7 °F /  -8.5 °C 30.33in /  1027hPa Calm   2.0mph /  3.2km/h 25% 0.00in /  0mm 0.0 W/m2
22:05 51.3 °F /  10.7 °C 17.6 °F /  -8 °C 30.33in /  1027hPa Calm     26% 0.00in /  0mm 0.0 W/m2
22:11 51.1 °F /  10.6 °C 16.5 °F /  -8.6 °C 30.34in /  1027.3hPa Calm     25% 0.00in /  0mm 0.0 W/m2
22:17 51.1 °F /  10.6 °C 16.5 °F /  -8.6 °C 30.33in /  1027hPa ENE 0.9mph /  1.4km/h 1.0mph /  1.6km/h 25% 0.00in /  0mm 0.0 W/m2
22:23 51.1 °F /  10.6 °C 16.5 °F /  -8.6 °C 30.34in /  1027.3hPa Calm   2.0mph /  3.2km/h 25% 0.00in /  0mm 0.0 W/m2
22:29 51.1 °F /  10.6 °C 16.5 °F /  -8.6 °C 30.34in /  1027.3hPa ESE 0.9mph /  1.4km/h 1.0mph /  1.6km/h 25% 0.00in /  0mm 0.0 W/m2
22:35 51.1 °F /  10.6 °C 15.4 °F /  -9.2 °C 30.34in /  1027.3hPa Calm   2.0mph /  3.2km/h 24% 0.00in /  0mm 0.0 W/m2
22:41 51.1 °F /  10.6 °C 16.5 °F /  -8.6 °C 30.34in /  1027.3hPa Calm   1.0mph /  1.6km/h 25% 0.00in /  0mm 0.0 W/m2
22:47 51.3 °F /  10.7 °C 16.7 °F /  -8.5 °C 30.34in /  1027.3hPa East 0.9mph /  1.4km/h 2.0mph /  3.2km/h 25% 0.00in /  0mm 0.0 W/m2
22:53 51.3 °F /  10.7 °C 16.7 °F /  -8.5 °C 30.34in /  1027.3hPa Calm   1.0mph /  1.6km/h 25% 0.00in /  0mm 0.0 W/m2
22:59 51.1 °F /  10.6 °C 16.5 °F /  -8.6 °C 30.34in /  1027.3hPa Calm     25% 0.00in /  0mm 0.0 W/m2
23:05 51.1 °F /  10.6 °C 16.5 °F /  -8.6 °C 30.34in /  1027.3hPa Calm     25% 0.00in /  0mm 0.0 W/m2
23:18 50.7 °F /  10.4 °C 17.1 °F /  -8.3 °C 30.34in /  1027.3hPa Calm   2.0mph /  3.2km/h 26% 0.00in /  0mm 0.0 W/m2
23:24 50.5 °F /  10.3 °C 16.9 °F /  -8.4 °C 30.34in /  1027.3hPa Calm     26% 0.00in /  0mm 0.0 W/m2
23:30 50.4 °F /  10.2 °C 16.7 °F /  -8.5 °C 30.34in /  1027.3hPa NE 0.9mph /  1.4km/h 2.0mph /  3.2km/h 26% 0.00in /  0mm 0.0 W/m2
23:36 50.4 °F /  10.2 °C 16.7 °F /  -8.5 °C 30.34in /  1027.3hPa East 0.9mph /  1.4km/h 5.0mph /  8km/h 26% 0.00in /  0mm 0.0 W/m2
23:42 50.2 °F /  10.1 °C 16.5 °F /  -8.6 °C 30.34in /  1027.3hPa East 0.9mph /  1.4km/h 3.0mph /  4.8km/h 26% 0.00in /  0mm 0.0 W/m2
23:48 50.4 °F /  10.2 °C 16.7 °F /  -8.5 °C 30.35in /  1027.7hPa Calm   3.0mph /  4.8km/h 26% 0.00in /  0mm 0.0 W/m2
23:54 50.5 °F /  10.3 °C 16.9 °F /  -8.4 °C 30.35in /  1027.7hPa Calm   1.0mph /  1.6km/h 26% 0.00in /  0mm 0.0 W/m2
Olympia, Windhoek, Namibia
Compliments of Weather Underground - 3 mb